createdAt,value
2022-10-28T00:01:16.402Z,100912.56
2022-10-28T00:03:44.163Z,100915.47
2022-10-28T00:06:16.100Z,100911.34
2022-10-28T00:08:43.193Z,100920.59
2022-10-28T00:11:11.328Z,100920.59
2022-10-28T00:13:38.665Z,100926.94
2022-10-28T00:16:06.663Z,100928.78
2022-10-28T00:18:33.279Z,100922.44
2022-10-28T00:21:04.324Z,100926.13
2022-10-28T00:23:31.109Z,100927.97
2022-10-28T00:26:04.094Z,100923.66
2022-10-28T00:28:30.873Z,100926.31
2022-10-28T00:31:02.699Z,100930.81
2022-10-28T00:33:29.367Z,100929.19
2022-10-28T00:35:55.951Z,100927.38
2022-10-28T00:38:22.627Z,100912.56
2022-10-28T00:40:49.241Z,100916.88
2022-10-28T00:43:15.887Z,100909.91
2022-10-28T00:45:42.667Z,100913.41
2022-10-28T00:48:09.327Z,100910.94
2022-10-28T00:50:35.913Z,100898.84
2022-10-28T00:53:05.305Z,100905.19
2022-10-28T00:55:32.042Z,100910.72
2022-10-28T00:57:59.381Z,100913.38
2022-10-28T01:00:26.225Z,100919.53
2022-10-28T01:02:52.872Z,100916.06
2022-10-28T01:05:22.779Z,100907.44
2022-10-28T01:07:51.798Z,100901.50
2022-10-28T01:10:19.434Z,100912.34
2022-10-28T01:12:46.010Z,100909.91
2022-10-28T01:15:12.564Z,100914.41
2022-10-28T01:17:45.021Z,100908.25
2022-10-28T01:20:11.650Z,100913.19
2022-10-28T01:22:57.140Z,100905.97
2022-10-28T01:25:42.403Z,100904.38
2022-10-28T01:28:11.742Z,100907.22
2022-10-28T01:30:56.401Z,100900.44
2022-10-28T01:33:49.699Z,100899.66
2022-10-28T01:36:16.282Z,100901.47
2022-10-28T01:38:48.756Z,100903.28
2022-10-28T01:41:20.278Z,100905.13
2022-10-28T01:43:46.819Z,100885.84
2022-10-28T01:46:23.656Z,100883.19
2022-10-28T01:49:02.574Z,100888.53
2022-10-28T01:51:32.668Z,100891.41
2022-10-28T01:54:01.426Z,100887.09
2022-10-28T01:56:31.250Z,100889.31
2022-10-28T01:58:59.235Z,100877.88
2022-10-28T02:01:27.683Z,100868.22
2022-10-28T02:03:54.821Z,100866.59
2022-10-28T02:06:23.224Z,100859.41
2022-10-28T02:09:08.802Z,100867.41
2022-10-28T02:11:53.932Z,100866.59
2022-10-28T02:14:29.399Z,100852.44
2022-10-28T02:17:02.620Z,100849.78
2022-10-28T02:19:29.246Z,100846.28
2022-10-28T02:22:05.574Z,100839.94
2022-10-28T02:24:51.477Z,100836.25
2022-10-28T02:27:24.023Z,100823.13
2022-10-28T02:29:59.249Z,100818.81
2022-10-28T02:32:28.110Z,100816.38
2022-10-28T02:34:56.420Z,100818.22
2022-10-28T02:37:28.707Z,100807.13
2022-10-28T02:40:00.400Z,100799.13
2022-10-28T02:42:48.746Z,100814.31
2022-10-28T02:45:29.235Z,100808.16
2022-10-28T02:47:58.898Z,100790.53
2022-10-28T02:50:29.515Z,100786.00
2022-10-28T02:52:58.637Z,100784.16
2022-10-28T02:55:30.181Z,100772.50
2022-10-28T02:57:57.247Z,100764.69
2022-10-28T03:00:25.167Z,100762.84
2022-10-28T03:02:51.982Z,100755.69
2022-10-28T03:05:18.715Z,100742.56
2022-10-28T03:07:48.208Z,100744.44
2022-10-28T03:10:18.449Z,100755.09
2022-10-28T03:12:45.238Z,100746.03
2022-10-28T03:15:11.843Z,100755.09
2022-10-28T03:17:38.428Z,100745.44
2022-10-28T03:20:05.250Z,100738.47
2022-10-28T03:22:32.049Z,100732.31
2022-10-28T03:24:58.730Z,100732.53
2022-10-28T03:27:25.282Z,100732.53
2022-10-28T03:29:51.935Z,100733.16
2022-10-28T03:32:19.033Z,100728.84
2022-10-28T03:34:47.519Z,100721.88
2022-10-28T03:37:15.315Z,100724.75
2022-10-28T03:39:41.935Z,100717.78
2022-10-28T03:42:08.507Z,100712.44
2022-10-28T03:44:35.121Z,100709.78
2022-10-28T03:47:01.770Z,100710.59
2022-10-28T03:49:28.481Z,100712.25
2022-10-28T03:51:55.070Z,100710.59
2022-10-28T03:54:21.886Z,100703.63
2022-10-28T03:56:48.447Z,100703.84
2022-10-28T03:59:17.773Z,100703.84
2022-10-28T04:01:47.009Z,100713.47
2022-10-28T04:04:13.724Z,100724.13
2022-10-28T04:06:40.360Z,100734.59
2022-10-28T04:09:06.960Z,100729.66
2022-10-28T04:11:33.535Z,100744.03
2022-10-28T04:14:00.290Z,100736.22
2022-10-28T04:16:26.897Z,100729.44
2022-10-28T04:18:53.467Z,100717.78
2022-10-28T04:21:20.104Z,100721.47
2022-10-28T04:23:46.684Z,100715.31
2022-10-28T04:26:14.425Z,100722.91
2022-10-28T04:28:41.168Z,100710.59
2022-10-28T04:31:07.807Z,100700.16
2022-10-28T04:33:34.427Z,100695.03
2022-10-28T04:36:01.058Z,100703.03
2022-10-28T04:38:27.777Z,100694.22
2022-10-28T04:40:54.502Z,100692.38
2022-10-28T04:43:21.165Z,100699.75
2022-10-28T04:45:47.752Z,100688.25
2022-10-28T04:48:14.351Z,100677.00
2022-10-28T04:50:41.229Z,100682.34
2022-10-28T04:53:07.802Z,100682.94
2022-10-28T04:55:34.485Z,100681.31
2022-10-28T04:58:01.405Z,100681.31
2022-10-28T05:00:29.194Z,100681.53
2022-10-28T05:02:56.533Z,100677.84
2022-10-28T05:05:23.392Z,100680.69
2022-10-28T05:07:50.164Z,100675.38
2022-10-28T05:10:18.513Z,100674.75
2022-10-28T05:12:45.689Z,100674.56
2022-10-28T05:15:26.458Z,100677.00
2022-10-28T05:17:53.581Z,100676.19
2022-10-28T05:20:20.828Z,100677.84
2022-10-28T05:22:48.263Z,100680.50
2022-10-28T05:25:15.669Z,100683.75
2022-10-28T05:27:42.597Z,100689.53
2022-10-28T05:30:14.674Z,100701.59
2022-10-28T05:32:41.305Z,100712.03
2022-10-28T05:35:08.225Z,100733.75
2022-10-28T05:37:34.804Z,100724.56
2022-10-28T05:40:01.467Z,100719.00
2022-10-28T05:42:28.066Z,100719.19
2022-10-28T05:44:54.679Z,100699.91
2022-10-28T05:47:21.559Z,100709.16
2022-10-28T05:49:48.166Z,100700.13
2022-10-28T05:52:15.105Z,100696.44
2022-10-28T05:54:41.740Z,100701.38
2022-10-28T05:57:08.334Z,100697.47
2022-10-28T05:59:34.960Z,100710.19
2022-10-28T06:02:01.607Z,100712.47
2022-10-28T06:04:28.299Z,100704.03
2022-10-28T06:06:56.145Z,100696.66
2022-10-28T06:09:22.755Z,100692.16
2022-10-28T06:11:47.869Z,100691.31
2022-10-28T06:14:14.458Z,100697.25
2022-10-28T06:16:41.171Z,100688.03
2022-10-28T06:19:07.803Z,100679.59
2022-10-28T06:21:34.371Z,100684.13
2022-10-28T06:24:01.753Z,100713.25
2022-10-28T06:26:28.347Z,100724.72
2022-10-28T06:28:55.103Z,100716.94
2022-10-28T06:31:21.750Z,100710.56
2022-10-28T06:33:48.335Z,100711.41
2022-10-28T06:36:14.939Z,100718.13
2022-10-28T06:38:41.769Z,100717.75
2022-10-28T06:41:08.517Z,100721.44
2022-10-28T06:43:35.136Z,100722.66
2022-10-28T06:46:02.600Z,100719.19
2022-10-28T06:48:30.723Z,100727.19
2022-10-28T06:50:58.263Z,100740.53
2022-10-28T06:53:25.541Z,100732.28
2022-10-28T06:55:53.143Z,100735.78
2022-10-28T06:58:19.953Z,100742.75
2022-10-28T07:00:46.534Z,100737.44
2022-10-28T07:03:13.161Z,100742.56
2022-10-28T07:05:39.863Z,100739.28
2022-10-28T07:08:06.669Z,100748.09
2022-10-28T07:10:33.434Z,100752.41
2022-10-28T07:13:00.015Z,100756.72
2022-10-28T07:15:26.738Z,100767.38
2022-10-28T07:17:53.992Z,100760.16
2022-10-28T07:20:20.730Z,100761.81
2022-10-28T07:22:47.386Z,100759.97
2022-10-28T07:25:14.022Z,100757.31
2022-10-28T07:27:40.643Z,100756.28
2022-10-28T07:30:07.652Z,100756.69
2022-10-28T07:32:34.268Z,100764.47
2022-10-28T07:35:00.924Z,100773.09
2022-10-28T07:37:27.627Z,100767.78
2022-10-28T07:39:54.275Z,100787.03
2022-10-28T07:42:20.863Z,100809.00
2022-10-28T07:44:48.022Z,100813.50
2022-10-28T07:47:14.616Z,100813.06
2022-10-28T07:49:41.351Z,100816.38
2022-10-28T07:52:08.052Z,100813.06
2022-10-28T07:54:34.747Z,100817.97
2022-10-28T07:57:01.402Z,100812.00
2022-10-28T07:59:27.986Z,100817.97
2022-10-28T08:01:54.983Z,100820.19
2022-10-28T08:04:21.912Z,100812.81
2022-10-28T08:06:48.564Z,100803.78
2022-10-28T08:09:16.359Z,100817.72
2022-10-28T08:11:42.947Z,100832.09
2022-10-28T08:14:09.545Z,100829.22
2022-10-28T08:16:36.428Z,100828.00
2022-10-28T08:19:07.464Z,100823.25
2022-10-28T08:21:34.566Z,100832.06
2022-10-28T08:24:01.274Z,100839.25
2022-10-28T08:26:27.902Z,100845.41
2022-10-28T08:28:54.572Z,100837.41
2022-10-28T08:31:21.159Z,100847.06
2022-10-28T08:33:47.767Z,100852.41
2022-10-28T08:36:15.857Z,100857.94
2022-10-28T08:38:46.449Z,100853.44
2022-10-28T08:41:22.041Z,100849.94
2022-10-28T08:44:09.096Z,100853.84
2022-10-28T08:46:54.513Z,100853.63
2022-10-28T08:49:23.644Z,100865.34
2022-10-28T08:52:11.920Z,100852.22
2022-10-28T08:54:47.776Z,100857.53
2022-10-28T08:57:20.727Z,100860.81
2022-10-28T08:59:54.175Z,100865.94
2022-10-28T09:02:22.711Z,100863.28
2022-10-28T09:04:52.335Z,100864.94
2022-10-28T09:07:20.680Z,100858.56
2022-10-28T09:09:48.557Z,100866.97
2022-10-28T09:12:34.737Z,100867.78
2022-10-28T09:15:13.108Z,100872.09
2022-10-28T09:18:04.430Z,100882.53
2022-10-28T09:20:31.022Z,100884.19
2022-10-28T09:23:08.762Z,100884.19
2022-10-28T09:25:58.733Z,100886.88
2022-10-28T09:28:25.460Z,100895.69
2022-10-28T09:31:33.037Z,100902.47
2022-10-28T09:34:08.980Z,100901.66
2022-10-28T09:36:38.027Z,100915.19
2022-10-28T09:39:05.734Z,100925.88
2022-10-28T09:41:33.752Z,100919.50
2022-10-28T09:44:07.450Z,100926.69
2022-10-28T09:46:37.184Z,100933.88
2022-10-28T09:49:06.229Z,100934.31
2022-10-28T09:51:45.091Z,100954.59
2022-10-28T09:54:12.938Z,100948.25
2022-10-28T09:56:40.645Z,100958.56
2022-10-28T09:59:08.121Z,100955.91
2022-10-28T10:01:36.235Z,100962.06
2022-10-28T10:04:03.360Z,100962.44
2022-10-28T10:06:35.660Z,100972.94
2022-10-28T10:09:02.857Z,100971.28
2022-10-28T10:11:32.616Z,100982.16
2022-10-28T10:14:03.384Z,100983.19
2022-10-28T10:16:32.899Z,100991.00
2022-10-28T10:19:02.066Z,100994.50
2022-10-28T10:21:41.245Z,101002.06
2022-10-28T10:24:26.566Z,101004.97
2022-10-28T10:26:53.656Z,100998.19
2022-10-28T10:29:21.155Z,101015.22
2022-10-28T10:31:48.166Z,101008.84
2022-10-28T10:34:23.350Z,101016.66
2022-10-28T10:36:51.126Z,101023.22
2022-10-28T10:39:23.174Z,101040.28
2022-10-28T10:41:49.772Z,101046.63
2022-10-28T10:44:22.532Z,101051.56
2022-10-28T10:46:55.493Z,101050.97
2022-10-28T10:49:22.112Z,101055.25
2022-10-28T10:51:59.391Z,101056.06
2022-10-28T10:54:27.391Z,101062.41
2022-10-28T10:56:54.083Z,101060.75
2022-10-28T10:59:23.949Z,101072.25
2022-10-28T11:01:51.032Z,101073.09
2022-10-28T11:04:20.174Z,101070.41
2022-10-28T11:06:50.534Z,101079.03
2022-10-28T11:09:29.380Z,101086.41
2022-10-28T11:11:56.584Z,101080.66
2022-10-28T11:14:24.873Z,101092.19
2022-10-28T11:16:55.658Z,101095.69
2022-10-28T11:19:29.342Z,101091.97
2022-10-28T11:21:56.256Z,101087.47
2022-10-28T11:24:34.791Z,101095.25
2022-10-28T11:27:13.629Z,101087.44
2022-10-28T11:29:40.919Z,101098.94
2022-10-28T11:32:22.542Z,101102.44
2022-10-28T11:35:27.988Z,101107.59
2022-10-28T11:38:21.314Z,101114.78
2022-10-28T11:40:50.720Z,101114.53
2022-10-28T11:44:07.213Z,101116.81
2022-10-28T11:47:18.199Z,101114.16
2022-10-28T11:50:06.592Z,101103.06
2022-10-28T11:53:13.854Z,101111.53
2022-10-28T11:56:12.472Z,101108.25
2022-10-28T11:59:07.627Z,101109.06
2022-10-28T12:01:44.174Z,101109.91
2022-10-28T12:04:13.825Z,101105.16
2022-10-28T12:06:46.496Z,101097.34
2022-10-28T12:09:18.626Z,101092.03
2022-10-28T12:14:50.297Z,101094.09
2022-10-28T12:17:16.905Z,101094.09
2022-10-28T12:20:13.571Z,101094.91
2022-10-28T12:22:52.770Z,101103.50
2022-10-28T12:25:25.605Z,101106.00
2022-10-28T12:28:10.746Z,101108.66
2022-10-28T12:31:04.299Z,101103.13
2022-10-28T12:34:02.629Z,101106.19
2022-10-28T12:36:51.551Z,101112.16
2022-10-28T12:39:53.377Z,101122.84
2022-10-28T12:42:58.735Z,101121.59
2022-10-28T12:45:25.885Z,101119.34
2022-10-28T12:48:07.633Z,101131.47
2022-10-28T12:51:00.034Z,101126.31
2022-10-28T12:53:59.250Z,101135.34
2022-10-28T12:56:54.042Z,101135.34
2022-10-28T12:59:33.537Z,101134.53
2022-10-28T13:02:28.032Z,101143.38
2022-10-28T13:05:16.723Z,101146.03
2022-10-28T13:08:28.006Z,101134.53
2022-10-28T13:11:13.494Z,101142.34
2022-10-28T13:14:01.583Z,101146.28
2022-10-28T13:16:34.350Z,101151.63
2022-10-28T13:19:09.830Z,101163.31
2022-10-28T13:21:39.218Z,101166.00
2022-10-28T13:24:05.799Z,101158.81
2022-10-28T13:26:34.339Z,101155.31
2022-10-28T13:29:02.538Z,101167.41
2022-10-28T13:31:42.926Z,101174.00
2022-10-28T13:34:11.720Z,101168.06
2022-10-28T13:36:57.328Z,101170.09
2022-10-28T13:39:31.865Z,101177.91
2022-10-28T13:42:23.443Z,101181.19
2022-10-28T13:45:18.605Z,101186.13
2022-10-28T13:48:05.533Z,101192.72
2022-10-28T13:51:05.314Z,101185.50
2022-10-28T13:56:44.384Z,101200.31
2022-10-28T13:59:34.036Z,101199.69
2022-10-28T14:02:39.061Z,101203.38
2022-10-28T14:05:24.000Z,101201.53
2022-10-28T14:08:09.213Z,101202.56
2022-10-28T14:11:11.969Z,101206.25
2022-10-28T14:14:22.875Z,101210.16
2022-10-28T14:17:14.299Z,101207.50
2022-10-28T14:20:08.511Z,101216.34
2022-10-28T14:22:36.348Z,101206.69
2022-10-28T14:25:44.776Z,101214.69
2022-10-28T14:28:50.077Z,101229.50
2022-10-28T14:31:21.006Z,101219.84
2022-10-28T14:33:53.704Z,101230.91
2022-10-28T14:36:20.360Z,101243.44
2022-10-28T14:39:35.065Z,101239.38
2022-10-28T14:42:24.523Z,101247.59
2022-10-28T14:45:01.405Z,101243.88
2022-10-28T14:47:29.670Z,101257.88
2022-10-28T14:50:02.421Z,101250.47
2022-10-28T14:52:31.957Z,101265.66
2022-10-28T14:55:03.797Z,101264.59
2022-10-28T14:57:34.102Z,101258.25
2022-10-28T15:00:04.802Z,101247.78
2022-10-28T15:02:33.347Z,101243.47
2022-10-28T15:05:10.003Z,101254.16
2022-10-28T15:07:39.837Z,101258.25
2022-10-28T15:10:18.201Z,101261.31
2022-10-28T15:12:47.175Z,101262.75
2022-10-28T15:15:22.812Z,101266.25
2022-10-28T15:17:50.907Z,101260.91
2022-10-28T15:20:21.881Z,101261.28
2022-10-28T15:22:49.453Z,101259.88
2022-10-28T15:25:18.194Z,101258.84
2022-10-28T15:27:46.141Z,101258.63
2022-10-28T15:30:17.165Z,101262.53
2022-10-28T15:32:44.535Z,101265.00
2022-10-28T15:35:21.785Z,101262.94
2022-10-28T15:37:49.140Z,101276.91
2022-10-28T15:40:21.256Z,101277.94
2022-10-28T15:42:58.692Z,101286.75
2022-10-28T15:45:27.404Z,101284.50
2022-10-28T15:47:55.481Z,101281.84
2022-10-28T15:50:26.513Z,101287.59
2022-10-28T15:52:55.483Z,101292.94
2022-10-28T15:55:30.618Z,101312.00
2022-10-28T15:58:16.496Z,101311.16
2022-10-28T16:00:56.262Z,101304.97
2022-10-28T16:03:26.549Z,101309.69
2022-10-28T16:05:56.002Z,101307.66
2022-10-28T16:08:25.945Z,101298.63
2022-10-28T16:10:55.922Z,101299.22
2022-10-28T16:13:23.641Z,101307.00
2022-10-28T16:15:55.011Z,101306.41
2022-10-28T16:18:24.002Z,101298.56
2022-10-28T16:20:51.924Z,101298.56
2022-10-28T16:23:21.439Z,101315.78
2022-10-28T16:25:48.936Z,101316.75
2022-10-28T16:28:19.315Z,101326.59
2022-10-28T16:30:47.197Z,101324.50
2022-10-28T16:33:14.915Z,101329.25
2022-10-28T16:35:42.657Z,101333.13
2022-10-28T16:38:12.790Z,101347.69
2022-10-28T16:40:55.310Z,101346.22
2022-10-28T16:43:24.233Z,101359.31
2022-10-28T16:45:52.073Z,101358.69
2022-10-28T16:48:20.531Z,101365.66
2022-10-28T16:50:50.574Z,101373.88
2022-10-28T16:53:18.272Z,101370.97
2022-10-28T16:55:46.074Z,101374.41
2022-10-28T16:58:13.771Z,101378.50
2022-10-28T17:00:42.086Z,101371.69
2022-10-28T17:03:12.736Z,101380.72
2022-10-28T17:05:40.150Z,101386.03
2022-10-28T17:08:09.821Z,101379.88
2022-10-28T17:10:37.564Z,101375.19
2022-10-28T17:13:04.710Z,101380.09
2022-10-28T17:15:32.279Z,101387.44
2022-10-28T17:17:59.882Z,101383.94
2022-10-28T17:20:27.547Z,101384.13
2022-10-28T17:22:55.356Z,101387.19
2022-10-28T17:25:24.120Z,101398.00
2022-10-28T17:27:52.796Z,101405.38
2022-10-28T17:30:21.253Z,101404.72
2022-10-28T17:32:50.484Z,101405.28
2022-10-28T17:35:18.519Z,101411.03
2022-10-28T17:37:45.854Z,101416.34
2022-10-28T17:40:13.184Z,101423.88
2022-10-28T17:42:41.860Z,101426.38
2022-10-28T17:45:10.120Z,101428.84
2022-10-28T17:47:37.051Z,101432.53
2022-10-28T17:50:04.639Z,101434.19
2022-10-28T17:52:35.670Z,101430.41
2022-10-28T17:55:05.800Z,101431.41
2022-10-28T17:57:32.894Z,101428.38
2022-10-28T17:59:59.955Z,101417.91
2022-10-28T18:02:28.800Z,101419.13
2022-10-28T18:04:55.784Z,101424.81
2022-10-28T18:07:22.779Z,101430.72
2022-10-28T18:09:50.020Z,101435.78
2022-10-28T18:12:17.096Z,101428.81
2022-10-28T18:14:44.292Z,101427.53
2022-10-28T18:17:13.790Z,101433.81
2022-10-28T18:19:40.795Z,101432.72
2022-10-28T18:22:07.804Z,101436.97
2022-10-28T18:24:35.035Z,101429.53
2022-10-28T18:27:02.188Z,101425.22
2022-10-28T18:29:29.206Z,101430.72
2022-10-28T18:31:57.212Z,101434.31
2022-10-28T18:34:24.427Z,101442.50
2022-10-28T18:36:52.044Z,101434.50
2022-10-28T18:39:20.219Z,101449.84
2022-10-28T18:41:47.083Z,101436.72
2022-10-28T18:44:14.615Z,101439.75
2022-10-28T18:46:41.670Z,101446.44
2022-10-28T18:49:08.651Z,101453.16
2022-10-28T18:51:35.757Z,101463.34
2022-10-28T18:54:02.911Z,101468.22
2022-10-28T18:56:30.388Z,101458.94
2022-10-28T18:58:58.335Z,101465.44
2022-10-28T19:01:27.336Z,101459.50
2022-10-28T19:03:55.537Z,101462.88
2022-10-28T19:06:23.659Z,101465.16
2022-10-28T19:08:52.362Z,101462.06
2022-10-28T19:11:19.657Z,101464.84
2022-10-28T19:13:46.981Z,101463.56
2022-10-28T19:16:13.964Z,101462.13
2022-10-28T19:18:41.048Z,101472.13
2022-10-28T19:21:11.226Z,101474.59
2022-10-28T19:23:38.622Z,101476.59
2022-10-28T19:26:07.287Z,101483.97
2022-10-28T19:28:39.817Z,101480.66
2022-10-28T19:31:08.660Z,101483.31
2022-10-28T19:33:36.153Z,101482.66
2022-10-28T19:36:05.006Z,101481.19
2022-10-28T19:38:33.139Z,101477.69
2022-10-28T19:41:02.186Z,101474.75
2022-10-28T19:43:29.725Z,101476.59
2022-10-28T19:46:02.875Z,101477.78
2022-10-28T19:48:30.297Z,101477.13
2022-10-28T19:50:57.685Z,101477.97
2022-10-28T19:53:25.859Z,101482.63
2022-10-28T19:55:57.256Z,101487.47
2022-10-28T19:58:24.768Z,101474.00
2022-10-28T20:00:56.619Z,101476.00
2022-10-28T20:03:23.916Z,101479.03
2022-10-28T20:05:58.892Z,101484.72
2022-10-28T20:08:26.125Z,101480.75
2022-10-28T20:11:01.488Z,101483.41
2022-10-28T20:13:29.159Z,101494.44
2022-10-28T20:15:57.322Z,101489.28
2022-10-28T20:18:25.104Z,101489.44
2022-10-28T20:20:52.751Z,101491.28
2022-10-28T20:23:20.015Z,101492.47
2022-10-28T20:25:51.579Z,101500.44
2022-10-28T20:28:19.063Z,101506.59
2022-10-28T20:30:55.703Z,101518.25
2022-10-28T20:33:22.927Z,101523.72
2022-10-28T20:35:50.459Z,101527.59
2022-10-28T20:38:19.018Z,101526.91
2022-10-28T20:40:49.354Z,101527.28
2022-10-28T20:43:17.564Z,101530.78
2022-10-28T20:45:44.709Z,101516.81
2022-10-28T20:48:12.132Z,101517.00
2022-10-28T20:50:39.378Z,101517.00
2022-10-28T20:53:06.445Z,101528.13
2022-10-28T20:55:33.459Z,101527.63
2022-10-28T20:58:00.523Z,101524.97
2022-10-28T21:00:27.733Z,101516.81
2022-10-28T21:02:55.770Z,101507.00
2022-10-28T21:05:24.568Z,101504.19
2022-10-28T21:07:51.641Z,101509.13
2022-10-28T21:10:19.606Z,101505.66
2022-10-28T21:12:47.061Z,101508.31
2022-10-28T21:15:15.777Z,101502.16
2022-10-28T21:17:43.308Z,101514.63
2022-10-28T21:20:10.807Z,101521.44
2022-10-28T21:22:37.839Z,101530.41
2022-10-28T21:25:06.396Z,101526.09
2022-10-28T21:27:34.676Z,101519.94
2022-10-28T21:30:01.891Z,101528.59
2022-10-28T21:32:29.020Z,101528.75
2022-10-28T21:34:56.143Z,101528.94
2022-10-28T21:37:23.252Z,101529.13
2022-10-28T21:39:55.067Z,101527.63
2022-10-28T21:42:24.089Z,101530.47
2022-10-28T21:44:51.101Z,101540.13
2022-10-28T21:47:18.492Z,101531.31
2022-10-28T21:49:45.582Z,101546.44
2022-10-28T21:52:13.229Z,101534.13
2022-10-28T21:54:43.017Z,101535.97
2022-10-28T21:57:10.147Z,101533.31
2022-10-28T21:59:37.345Z,101523.34
2022-10-28T22:02:05.187Z,101519.19
2022-10-28T22:04:32.788Z,101514.03
2022-10-28T22:06:59.802Z,101504.44
2022-10-28T22:09:26.964Z,101511.56
2022-10-28T22:11:54.079Z,101505.75
2022-10-28T22:14:21.971Z,101493.19
2022-10-28T22:16:49.235Z,101490.25
2022-10-28T22:19:16.720Z,101489.59
2022-10-28T22:21:44.140Z,101484.63
2022-10-28T22:24:11.306Z,101493.09
2022-10-28T22:26:38.221Z,101492.97
2022-10-28T22:29:05.536Z,101493.97
2022-10-28T22:31:33.208Z,101499.94
2022-10-28T22:34:00.602Z,101491.97
2022-10-28T22:36:28.483Z,101487.00
2022-10-28T22:38:55.709Z,101487.34
2022-10-28T22:41:24.807Z,101479.38
2022-10-28T22:43:54.227Z,101507.59
2022-10-28T22:46:21.397Z,101495.94
2022-10-28T22:48:48.459Z,101497.78
2022-10-28T22:51:16.088Z,101487.69
2022-10-28T22:53:43.215Z,101464.81
2022-10-28T22:56:13.255Z,101474.41
2022-10-28T22:58:39.931Z,101469.91
2022-10-28T23:01:07.284Z,101469.09
2022-10-28T23:03:43.082Z,101482.38
2022-10-28T23:06:12.102Z,101481.72
2022-10-28T23:08:41.752Z,101484.56
2022-10-28T23:11:27.937Z,101493.53
2022-10-28T23:13:56.257Z,101493.53
2022-10-28T23:16:30.094Z,101484.56
2022-10-28T23:18:57.092Z,101475.13
2022-10-28T23:21:29.010Z,101472.63
2022-10-28T23:24:11.026Z,101468.31
2022-10-28T23:29:28.090Z,101468.84
2022-10-28T23:32:11.000Z,101465.19
2022-10-28T23:34:44.215Z,101467.84
2022-10-28T23:40:04.609Z,101425.03
2022-10-28T23:42:36.266Z,101428.53
2022-10-28T23:45:03.782Z,101416.88
2022-10-28T23:47:35.735Z,101409.56
2022-10-28T23:50:02.629Z,101411.56
2022-10-28T23:52:29.791Z,101421.41
2022-10-28T23:55:00.682Z,101439.16
2022-10-28T23:57:27.958Z,101425.03
2022-10-28T23:59:54.873Z,101419.72
